Time;durP1;ratioP1;P1;durP2;ratioP2;P2;SDS_P1;SDS_P2;PMS_P1;PMS_P2;Temp;Humidity;BMP_temperature;BMP_pressure;BME280_temperature;BME280_humidity;BME280_pressure;Samples;Min_cycle;Max_cycle;Signal;HPM_P1;HPM_P2
2024/03/23 00:00:02;;;;;;;37.08;5.50;;;6.60;100.00;;;;;;4934716;28;20066;-73
2024/03/23 00:02:28;;;;;;;36.85;5.25;;;6.60;100.00;;;;;;4920783;29;20054;-74
2024/03/23 00:04:55;;;;;;;27.35;4.90;;;6.60;100.00;;;;;;4938719;28;20635;-74
2024/03/23 00:07:22;;;;;;;34.53;5.55;;;6.60;100.00;;;;;;4938669;28;20055;-74
2024/03/23 00:09:49;;;;;;;36.75;5.10;;;6.60;100.00;;;;;;4938476;29;20054;-74
2024/03/23 00:12:17;;;;;;;24.73;5.38;;;6.60;100.00;;;;;;4938715;28;20059;-74
2024/03/23 00:14:46;;;;;;;27.92;5.50;;;6.50;100.00;;;;;;4908669;29;21168;-74
2024/03/23 00:17:13;;;;;;;24.63;5.00;;;6.50;100.00;;;;;;4920278;29;20070;-74
2024/03/23 00:19:39;;;;;;;38.58;6.32;;;6.50;100.00;;;;;;4938937;29;20051;-74
2024/03/23 00:22:06;;;;;;;26.05;4.97;;;6.50;100.00;;;;;;4922612;29;20925;-74
2024/03/23 00:24:33;;;;;;;47.92;5.50;;;6.50;100.00;;;;;;4922795;29;20059;-73
2024/03/23 00:27:00;;;;;;;37.40;4.35;;;6.50;100.00;;;;;;4917816;29;20055;-74
2024/03/23 00:29:27;;;;;;;36.83;4.70;;;6.50;100.00;;;;;;4918846;28;20077;-74
2024/03/23 00:31:55;;;;;;;38.13;5.28;;;6.40;100.00;;;;;;4921565;29;20081;-74
2024/03/23 00:34:22;;;;;;;29.83;5.43;;;6.40;100.00;;;;;;4936273;28;20062;-74
2024/03/23 00:36:48;;;;;;;31.77;5.28;;;6.40;100.00;;;;;;4937883;29;20055;-73
2024/03/23 00:39:15;;;;;;;35.80;5.38;;;6.40;100.00;;;;;;4938707;28;20051;-73
2024/03/23 00:41:42;;;;;;;31.17;5.65;;;6.40;100.00;;;;;;4937967;28;20534;-73
2024/03/23 00:44:09;;;;;;;39.30;5.72;;;6.30;100.00;;;;;;4922819;29;20059;-74
2024/03/23 00:46:36;;;;;;;21.63;4.57;;;6.30;100.00;;;;;;4939351;29;20062;-74
2024/03/23 00:49:04;;;;;;;41.55;5.68;;;6.30;100.00;;;;;;4921726;29;20063;-74
2024/03/23 00:51:31;;;;;;;37.38;4.97;;;6.30;100.00;;;;;;4920775;29;20054;-74
2024/03/23 00:53:57;;;;;;;39.83;5.43;;;6.30;100.00;;;;;;4919979;29;20051;-73
2024/03/23 00:56:24;;;;;;;28.88;4.32;;;6.30;100.00;;;;;;4922979;29;20055;-74
2024/03/23 00:58:50;;;;;;;31.25;4.97;;;6.30;100.00;;;;;;4938186;28;20062;-73
2024/03/23 01:01:15;;;;;;;34.67;3.97;;;6.30;100.00;;;;;;4938943;28;20110;-74
2024/03/23 01:03:42;;;;;;;46.78;5.78;;;6.30;100.00;;;;;;4938426;29;20059;-74
2024/03/23 01:06:08;;;;;;;49.58;6.22;;;6.30;100.00;;;;;;4941414;28;20059;-74
2024/03/23 01:08:34;;;;;;;24.58;4.53;;;6.20;100.00;;;;;;4943877;29;20059;-74
2024/03/23 01:11:01;;;;;;;26.38;4.80;;;6.20;100.00;;;;;;4957492;28;20059;-74
2024/03/23 01:13:27;;;;;;;55.35;5.05;;;6.20;100.00;;;;;;4943003;29;20059;-74
2024/03/23 01:15:54;;;;;;;19.20;4.13;;;6.20;100.00;;;;;;4942775;29;20070;-74
2024/03/23 01:18:26;;;;;;;32.30;4.47;;;6.20;100.00;;;;;;4941914;28;21326;-74
2024/03/23 01:20:53;;;;;;;44.53;5.15;;;6.20;100.00;;;;;;4942182;29;20456;-74
2024/03/23 01:23:19;;;;;;;28.35;4.47;;;6.20;100.00;;;;;;4925812;29;20142;-74
2024/03/23 01:25:52;;;;;;;32.40;5.30;;;6.20;100.00;;;;;;4926182;29;20519;-74
2024/03/23 01:28:19;;;;;;;46.13;6.32;;;6.20;100.00;;;;;;4941965;29;20460;-74
2024/03/23 01:30:45;;;;;;;29.33;3.85;;;6.20;100.00;;;;;;4941279;28;20054;-74
2024/03/23 01:33:11;;;;;;;44.35;4.78;;;6.10;100.00;;;;;;4941881;28;20055;-73
2024/03/23 01:35:38;;;;;;;33.95;4.53;;;6.20;100.00;;;;;;4941324;29;20117;-74
2024/03/23 01:38:04;;;;;;;36.40;6.03;;;6.10;100.00;;;;;;4923918;29;20066;-73
2024/03/23 01:40:33;;;;;;;29.52;4.10;;;6.10;100.00;;;;;;4943132;29;20421;-74
2024/03/23 01:43:04;;;;;;;38.45;4.55;;;6.10;100.00;;;;;;4943637;29;20063;-73
2024/03/23 01:45:34;;;;;;;35.63;5.18;;;6.00;100.00;;;;;;4929479;29;20077;-73
2024/03/23 01:48:02;;;;;;;32.22;4.88;;;6.00;100.00;;;;;;4943338;28;20070;-74
2024/03/23 01:50:33;;;;;;;31.58;6.38;;;6.00;100.00;;;;;;4940872;28;20106;-74
2024/03/23 01:53:02;;;;;;;27.02;4.75;;;6.00;100.00;;;;;;4942189;28;20742;-74
2024/03/23 01:55:28;;;;;;;29.08;4.70;;;6.00;100.00;;;;;;4939335;29;20063;-73
2024/03/23 01:57:57;;;;;;;30.13;5.32;;;5.90;100.00;;;;;;4941605;28;20051;-74
2024/03/23 02:00:23;;;;;;;29.20;4.32;;;5.90;100.00;;;;;;4942575;29;20062;-74
2024/03/23 02:02:49;;;;;;;37.22;4.68;;;5.80;100.00;;;;;;4941666;28;20063;-74
2024/03/23 02:05:17;;;;;;;23.70;5.40;;;5.80;100.00;;;;;;4924328;28;20087;-74
2024/03/23 02:07:43;;;;;;;20.77;4.80;;;5.80;100.00;;;;;;4925922;29;20066;-73
2024/03/23 02:10:10;;;;;;;23.42;4.47;;;5.70;100.00;;;;;;4941130;29;20444;-73
2024/03/23 02:12:36;;;;;;;52.13;5.85;;;5.70;100.00;;;;;;4939776;28;20070;-73
2024/03/23 02:15:03;;;;;;;34.05;5.05;;;5.70;100.00;;;;;;4924722;28;20059;-73
2024/03/23 02:17:31;;;;;;;26.27;5.57;;;5.70;100.00;;;;;;4940234;28;20051;-73
2024/03/23 02:19:57;;;;;;;34.50;6.13;;;5.70;100.00;;;;;;4923165;29;20055;-73
2024/03/23 02:22:23;;;;;;;31.35;4.75;;;5.60;100.00;;;;;;4936834;28;20073;-73
2024/03/23 02:24:49;;;;;;;47.38;5.80;;;5.60;100.00;;;;;;4940178;29;20051;-73
2024/03/23 02:27:15;;;;;;;28.00;5.43;;;5.60;100.00;;;;;;4940356;29;20664;-73
2024/03/23 02:29:41;;;;;;;27.77;4.97;;;5.60;100.00;;;;;;4925392;29;20067;-74
2024/03/23 02:32:09;;;;;;;22.98;5.18;;;5.60;100.00;;;;;;4940639;29;20051;-74
2024/03/23 02:34:38;;;;;;;40.92;5.50;;;5.60;100.00;;;;;;4925111;28;20066;-73
2024/03/23 02:37:11;;;;;;;43.15;6.07;;;5.60;100.00;;;;;;4925259;29;20526;-73
2024/03/23 02:39:37;;;;;;;42.65;5.88;;;5.60;100.00;;;;;;4925542;28;20051;-74
2024/03/23 02:42:03;;;;;;;43.90;6.10;;;5.60;100.00;;;;;;4925657;29;20063;-74
2024/03/23 02:44:29;;;;;;;40.88;6.38;;;5.60;100.00;;;;;;4942060;28;20062;-74
2024/03/23 02:46:55;;;;;;;37.53;5.55;;;5.60;100.00;;;;;;4940426;28;20837;-74
2024/03/23 02:49:21;;;;;;;31.48;5.22;;;5.60;100.00;;;;;;4940805;28;20055;-73
2024/03/23 02:51:48;;;;;;;33.58;5.47;;;5.60;100.00;;;;;;4922039;29;20093;-73
2024/03/23 02:54:14;;;;;;;30.13;4.63;;;5.60;100.00;;;;;;4939780;29;20684;-73
2024/03/23 02:56:40;;;;;;;34.13;4.82;;;5.60;100.00;;;;;;4940131;29;20644;-73
2024/03/23 02:59:06;;;;;;;33.38;5.43;;;5.50;100.00;;;;;;4919735;29;20087;-74
2024/03/23 03:01:32;;;;;;;30.67;5.03;;;5.50;100.00;;;;;;4939239;28;20059;-73
2024/03/23 03:03:58;;;;;;;38.78;6.15;;;5.40;100.00;;;;;;4938981;28;20062;-73
2024/03/23 03:06:25;;;;;;;31.00;5.63;;;5.40;100.00;;;;;;4939573;29;20059;-74
2024/03/23 03:08:51;;;;;;;40.80;5.10;;;5.40;100.00;;;;;;4939645;29;20062;-74
2024/03/23 03:11:17;;;;;;;38.70;5.40;;;5.30;100.00;;;;;;4925160;29;20138;-74
2024/03/23 03:13:42;;;;;;;36.55;4.75;;;5.30;100.00;;;;;;4924527;29;20051;-73
2024/03/23 03:16:12;;;;;;;25.38;4.05;;;5.20;100.00;;;;;;4923669;29;20066;-74
2024/03/23 03:18:40;;;;;;;34.08;4.85;;;5.20;100.00;;;;;;4950749;28;20056;-73
2024/03/23 03:21:10;;;;;;;36.15;6.10;;;5.20;100.00;;;;;;4932197;29;20524;-74
2024/03/23 03:23:38;;;;;;;30.10;5.45;;;5.10;100.00;;;;;;4933062;28;20089;-74
2024/03/23 03:26:04;;;;;;;32.03;4.97;;;5.10;100.00;;;;;;4932387;29;20059;-73
2024/03/23 03:28:32;;;;;;;35.58;4.72;;;5.10;100.00;;;;;;4930880;28;20052;-73
2024/03/23 03:30:59;;;;;;;33.65;6.18;;;5.00;100.00;;;;;;4916346;29;20074;-73
2024/03/23 03:33:28;;;;;;;35.50;4.75;;;5.00;100.00;;;;;;4933189;29;20055;-73
2024/03/23 03:35:54;;;;;;;26.88;4.68;;;4.90;100.00;;;;;;4932784;28;20481;-73
2024/03/23 03:38:20;;;;;;;36.35;5.50;;;4.90;100.00;;;;;;4931382;28;20062;-74
2024/03/23 03:40:46;;;;;;;29.95;4.28;;;4.90;100.00;;;;;;4916666;29;20063;-73
2024/03/23 03:43:12;;;;;;;25.48;4.65;;;4.80;100.00;;;;;;4932123;28;20074;-73
2024/03/23 03:45:38;;;;;;;29.05;4.80;;;4.80;100.00;;;;;;4934502;29;20500;-73
2024/03/23 03:48:04;;;;;;;37.75;4.78;;;4.80;100.00;;;;;;4951399;28;20059;-73
2024/03/23 03:50:30;;;;;;;38.90;5.88;;;4.70;100.00;;;;;;4939280;28;20129;-74
2024/03/23 03:52:56;;;;;;;43.88;5.93;;;4.70;100.00;;;;;;4936914;28;20055;-73
2024/03/23 03:55:22;;;;;;;21.52;4.85;;;4.70;100.00;;;;;;4938681;28;20089;-73
2024/03/23 03:57:48;;;;;;;25.95;4.22;;;4.70;100.00;;;;;;4921873;29;20090;-74
2024/03/23 04:00:14;;;;;;;29.75;5.10;;;4.70;100.00;;;;;;4938026;29;20061;-73
2024/03/23 04:02:40;;;;;;;23.95;4.88;;;4.60;100.00;;;;;;4937790;28;20063;-73
2024/03/23 04:05:06;;;;;;;34.33;5.25;;;4.70;100.00;;;;;;4938748;29;20182;-74
2024/03/23 04:07:32;;;;;;;34.38;4.32;;;4.70;100.00;;;;;;4938149;29;20059;-73
2024/03/23 04:09:58;;;;;;;37.47;5.43;;;4.70;100.00;;;;;;4938558;29;20059;-74
2024/03/23 04:12:24;;;;;;;32.65;5.43;;;4.70;100.00;;;;;;4918950;29;20054;-73
2024/03/23 04:14:50;;;;;;;36.75;4.78;;;4.70;100.00;;;;;;4937039;28;20063;-74
2024/03/23 04:17:16;;;;;;;33.67;5.57;;;4.70;100.00;;;;;;4936891;28;20114;-73
2024/03/23 04:19:42;;;;;;;51.38;5.55;;;4.70;100.00;;;;;;4937212;28;20067;-73
2024/03/23 04:22:08;;;;;;;40.33;4.72;;;4.70;100.00;;;;;;4937948;28;20063;-73
2024/03/23 04:24:34;;;;;;;45.13;5.97;;;4.60;100.00;;;;;;4937432;28;20059;-73
2024/03/23 04:27:03;;;;;;;38.35;5.40;;;4.60;100.00;;;;;;4938964;29;21309;-74
2024/03/23 04:29:29;;;;;;;32.22;4.10;;;4.60;100.00;;;;;;4923534;29;20066;-74
2024/03/23 04:31:55;;;;;;;34.40;4.78;;;4.60;100.00;;;;;;4954216;28;20051;-73
2024/03/23 04:34:23;;;;;;;36.50;4.65;;;4.60;100.00;;;;;;4938184;29;21310;-73
2024/03/23 04:36:49;;;;;;;29.65;4.35;;;4.60;100.00;;;;;;4953198;28;21377;-73
2024/03/23 04:39:19;;;;;;;31.05;4.97;;;4.50;100.00;;;;;;4937545;28;20646;-73
2024/03/23 04:41:46;;;;;;;50.33;5.95;;;4.50;100.00;;;;;;4937337;28;20070;-73
2024/03/23 04:44:12;;;;;;;28.58;5.15;;;4.50;100.00;;;;;;4938361;29;20063;-73
2024/03/23 04:46:37;;;;;;;33.80;5.72;;;4.50;100.00;;;;;;4937170;29;20072;-74
2024/03/23 04:49:04;;;;;;;24.17;4.18;;;4.40;100.00;;;;;;4939483;28;20062;-73
2024/03/23 04:51:36;;;;;;;51.13;4.78;;;4.40;100.00;;;;;;4939328;28;20047;-73
2024/03/23 04:54:02;;;;;;;44.45;5.55;;;4.30;100.00;;;;;;4923405;29;20063;-73
2024/03/23 04:56:29;;;;;;;39.20;5.55;;;4.30;100.00;;;;;;4917750;29;20055;-74
2024/03/23 04:58:55;;;;;;;51.30;5.72;;;4.30;100.00;;;;;;4921971;29;20051;-74
2024/03/23 05:01:21;;;;;;;50.33;5.35;;;4.30;100.00;;;;;;4937013;28;20070;-73
2024/03/23 05:03:49;;;;;;;40.22;5.57;;;4.30;100.00;;;;;;4935315;28;20416;-73
2024/03/23 05:06:15;;;;;;;40.22;6.10;;;4.30;100.00;;;;;;4922003;29;21040;-73
2024/03/23 05:08:41;;;;;;;36.03;5.93;;;4.30;100.00;;;;;;4936499;28;20055;-74
2024/03/23 05:11:06;;;;;;;31.42;4.72;;;4.20;100.00;;;;;;4938786;28;20055;-74
2024/03/23 05:13:32;;;;;;;34.90;5.88;;;4.30;100.00;;;;;;4922701;29;20062;-74
2024/03/23 05:15:59;;;;;;;44.30;6.15;;;4.30;100.00;;;;;;4939030;29;20086;-74
2024/03/23 05:18:26;;;;;;;43.40;5.47;;;4.30;100.00;;;;;;4939135;29;20058;-74
2024/03/23 05:20:57;;;;;;;30.60;5.88;;;4.30;100.00;;;;;;4938317;28;20051;-74
2024/03/23 05:23:24;;;;;;;35.28;5.60;;;4.30;100.00;;;;;;4920967;29;20058;-74
2024/03/23 05:25:50;;;;;;;38.90;6.50;;;4.30;100.00;;;;;;4937325;28;20070;-74
2024/03/23 05:28:15;;;;;;;31.88;5.28;;;4.30;100.00;;;;;;4937225;28;20405;-75
2024/03/23 05:30:41;;;;;;;41.67;5.32;;;4.30;100.00;;;;;;4937535;28;20456;-75
2024/03/23 05:33:07;;;;;;;30.60;4.55;;;4.30;100.00;;;;;;4937799;28;20055;-75
2024/03/23 05:35:33;;;;;;;58.35;5.38;;;4.40;100.00;;;;;;4939373;29;20059;-75
2024/03/23 05:37:59;;;;;;;41.47;5.72;;;4.40;100.00;;;;;;4940186;29;20051;-75
2024/03/23 05:40:28;;;;;;;36.03;4.65;;;4.40;100.00;;;;;;4939438;28;20059;-76
2024/03/23 05:42:55;;;;;;;36.47;5.55;;;4.50;100.00;;;;;;4922508;29;20059;-75
2024/03/23 05:45:22;;;;;;;37.42;4.28;;;4.50;100.00;;;;;;4924723;29;20465;-75
2024/03/23 05:47:48;;;;;;;28.40;3.67;;;4.50;100.00;;;;;;4941382;29;20121;-75
2024/03/23 05:50:14;;;;;;;46.20;5.45;;;4.50;100.00;;;;;;4940450;28;20695;-76
2024/03/23 05:52:42;;;;;;;21.58;4.47;;;4.60;100.00;;;;;;4938757;28;20070;-75
2024/03/23 05:55:08;;;;;;;43.67;5.55;;;4.60;100.00;;;;;;4944028;29;20055;-75
2024/03/23 05:57:34;;;;;;;37.78;5.30;;;4.60;100.00;;;;;;4942905;29;20055;-76
2024/03/23 05:59:59;;;;;;;36.80;4.38;;;4.70;100.00;;;;;;4924685;29;20070;-79
2024/03/23 06:02:25;;;;;;;30.13;4.55;;;4.70;100.00;;;;;;4948251;28;20055;-80
2024/03/23 06:04:51;;;;;;;39.72;5.05;;;4.80;100.00;;;;;;4949960;28;20089;-80
2024/03/23 06:07:17;;;;;;;29.50;4.43;;;4.80;100.00;;;;;;4934384;28;20135;-81
2024/03/23 06:09:43;;;;;;;39.47;5.22;;;4.80;100.00;;;;;;4933695;29;20074;-80
2024/03/23 06:12:09;;;;;;;29.35;4.00;;;4.80;100.00;;;;;;4933261;28;20412;-79
2024/03/23 06:14:35;;;;;;;42.83;5.25;;;4.90;100.00;;;;;;4950337;28;20059;-79
2024/03/23 06:17:01;;;;;;;45.58;4.68;;;5.00;100.00;;;;;;4949564;28;20047;-78
2024/03/23 06:19:27;;;;;;;43.90;5.15;;;5.00;100.00;;;;;;4947744;28;20496;-79
2024/03/23 06:21:54;;;;;;;37.00;4.22;;;5.00;100.00;;;;;;4949072;28;20070;-84
2024/03/23 06:24:24;;;;;;;49.22;5.32;;;5.10;100.00;;;;;;4950419;28;20060;-83
2024/03/23 06:26:50;;;;;;;55.83;10.02;;;5.20;100.00;;;;;;4925245;29;20067;-80
2024/03/23 06:29:16;;;;;;;43.72;11.18;;;5.30;100.00;;;;;;4924425;28;20055;-77
2024/03/23 06:31:42;;;;;;;67.22;13.48;;;5.30;100.00;;;;;;4945544;28;20101;-77
2024/03/23 06:34:08;;;;;;;58.72;15.65;;;5.40;100.00;;;;;;4940333;28;20055;-75
2024/03/23 06:36:34;;;;;;;79.05;31.48;;;5.40;100.00;;;;;;4937891;28;20055;-75
2024/03/23 06:39:00;;;;;;;196.55;97.63;;;5.50;100.00;;;;;;4938980;29;20059;-74
2024/03/23 06:41:26;;;;;;;87.03;36.95;;;5.60;100.00;;;;;;4940453;28;20114;-75
2024/03/23 06:43:52;;;;;;;31.10;6.35;;;5.70;100.00;;;;;;4944390;29;20062;-78
2024/03/23 06:46:18;;;;;;;42.78;4.40;;;5.70;100.00;;;;;;4927672;29;20059;-75
2024/03/23 06:48:45;;;;;;;41.72;5.35;;;5.80;100.00;;;;;;4946417;29;20062;-81
2024/03/23 06:51:11;;;;;;;41.03;5.78;;;5.80;100.00;;;;;;4949423;28;20066;-87
2024/03/23 06:53:37;;;;;;;45.65;7.30;;;5.90;100.00;;;;;;4944121;28;20059;-77
2024/03/23 06:56:03;;;;;;;50.40;6.28;;;5.90;100.00;;;;;;4944738;28;20055;-79
2024/03/23 06:58:29;;;;;;;27.65;3.95;;;6.00;100.00;;;;;;4945775;28;20664;-77
2024/03/23 07:00:55;;;;;;;60.25;5.13;;;6.10;100.00;;;;;;4946760;28;20055;-82
2024/03/23 07:03:21;;;;;;;27.48;4.10;;;6.10;100.00;;;;;;4944867;28;20075;-77
2024/03/23 07:05:47;;;;;;;32.47;4.40;;;6.20;100.00;;;;;;4945690;28;20531;-75
2024/03/23 07:08:18;;;;;;;26.67;4.03;;;6.20;100.00;;;;;;4944485;28;20059;-76
2024/03/23 07:10:44;;;;;;;54.67;6.18;;;6.30;100.00;;;;;;4938623;29;20062;-76
2024/03/23 07:13:10;;;;;;;50.00;5.65;;;6.30;100.00;;;;;;4947332;29;20050;-82
2024/03/23 07:15:36;;;;;;;30.70;4.53;;;6.40;100.00;;;;;;4930590;29;20051;-82
2024/03/23 07:18:02;;;;;;;43.17;5.43;;;6.50;100.00;;;;;;4931303;29;20047;-81
2024/03/23 07:20:30;;;;;;;40.25;5.85;;;6.60;100.00;;;;;;4948847;29;20047;-80
2024/03/23 07:22:56;;;;;;;42.63;4.95;;;6.60;100.00;;;;;;4933218;29;20428;-81
2024/03/23 07:25:23;;;;;;;22.70;3.60;;;6.70;100.00;;;;;;4945378;28;20051;-78
2024/03/23 07:27:49;;;;;;;46.88;4.40;;;6.70;100.00;;;;;;4947762;28;20607;-84
2024/03/23 07:30:15;;;;;;;27.02;4.68;;;6.70;100.00;;;;;;4933525;29;20059;-84
2024/03/23 07:32:43;;;;;;;34.78;4.15;;;6.70;100.00;;;;;;4932046;29;20098;-83
2024/03/23 07:35:09;;;;;;;48.65;4.97;;;6.70;100.00;;;;;;4932348;29;20102;-82
2024/03/23 07:37:35;;;;;;;53.65;4.68;;;6.80;100.00;;;;;;4932303;29;20059;-82
2024/03/23 07:40:01;;;;;;;33.08;4.07;;;6.80;100.00;;;;;;4949575;29;20054;-85
2024/03/23 07:42:27;;;;;;;37.90;4.13;;;6.80;100.00;;;;;;4949959;29;20051;-85
2024/03/23 07:44:56;;;;;;;29.58;5.20;;;6.90;100.00;;;;;;4948451;28;20079;-85
2024/03/23 07:47:22;;;;;;;37.95;5.95;;;6.90;100.00;;;;;;4948631;28;20058;-82
2024/03/23 07:49:48;;;;;;;43.63;5.18;;;6.90;100.00;;;;;;4948190;28;20054;-83
2024/03/23 07:52:14;;;;;;;42.60;5.65;;;6.90;100.00;;;;;;4945208;28;20047;-80
2024/03/23 07:54:40;;;;;;;55.72;6.55;;;7.00;100.00;;;;;;4922474;29;20130;-75
2024/03/23 07:57:06;;;;;;;40.90;5.85;;;7.10;100.00;;;;;;4938176;28;20047;-76
2024/03/23 07:59:33;;;;;;;33.55;5.07;;;7.30;100.00;;;;;;4939554;28;20676;-76
2024/03/23 08:02:00;;;;;;;39.08;5.00;;;7.30;100.00;;;;;;4938801;29;20055;-77
2024/03/23 08:04:27;;;;;;;30.92;4.22;;;7.30;100.00;;;;;;4920956;29;20073;-76
2024/03/23 08:06:53;;;;;;;20.35;3.80;;;7.50;100.00;;;;;;4921150;28;20102;-75
2024/03/23 08:09:19;;;;;;;29.80;4.32;;;7.70;100.00;;;;;;4938077;28;20150;-76
2024/03/23 08:11:46;;;;;;;35.83;3.97;;;7.80;100.00;;;;;;4940627;28;20051;-76
2024/03/23 08:14:30;;;;;;;38.60;4.43;;;8.00;100.00;;;;;;4938775;28;20047;-76
2024/03/23 08:16:56;;;;;;;28.85;4.53;;;8.00;100.00;;;;;;4940362;28;20119;-76
2024/03/23 08:19:22;;;;;;;39.58;4.97;;;8.10;100.00;;;;;;4938180;29;20057;-75
2024/03/23 08:21:48;;;;;;;40.05;5.07;;;8.20;100.00;;;;;;4938234;28;20063;-78
2024/03/23 08:24:14;;;;;;;28.67;4.00;;;8.10;100.00;;;;;;4948493;28;20114;-78
2024/03/23 08:26:40;;;;;;;20.52;3.50;;;8.00;100.00;;;;;;4934735;28;20476;-93
2024/03/23 08:29:06;;;;;;;29.10;4.00;;;7.80;100.00;;;;;;4933151;29;20059;-76
2024/03/23 08:31:32;;;;;;;35.88;5.03;;;7.80;100.00;;;;;;4945692;28;20055;-82
2024/03/23 08:33:59;;;;;;;43.22;4.18;;;7.90;100.00;;;;;;4946976;28;20079;-82
2024/03/23 08:36:25;;;;;;;22.38;4.38;;;8.00;100.00;;;;;;4947653;28;20126;-80
2024/03/23 08:38:53;;;;;;;33.42;3.88;;;8.20;100.00;;;;;;4931394;29;20129;-80
2024/03/23 08:41:19;;;;;;;37.75;5.25;;;8.40;100.00;;;;;;4930675;29;20051;-83
2024/03/23 08:43:45;;;;;;;39.15;4.93;;;8.40;100.00;;;;;;4947677;28;20617;-80
2024/03/23 08:46:12;;;;;;;25.73;5.55;;;8.40;100.00;;;;;;4946375;28;20055;-82
2024/03/23 08:48:45;;;;;;;33.22;4.47;;;8.60;100.00;;;;;;4944288;29;20043;-79
2024/03/23 08:51:14;;;;;;;25.15;4.07;;;8.80;100.00;;;;;;4928064;29;20066;-78
2024/03/23 08:53:41;;;;;;;21.17;3.78;;;8.90;100.00;;;;;;4920435;29;20189;-76
2024/03/23 08:56:07;;;;;;;40.40;4.90;;;9.00;100.00;;;;;;4937976;29;20051;-80
2024/03/23 08:58:34;;;;;;;39.88;5.13;;;9.00;100.00;;;;;;4937271;28;20051;-74
2024/03/23 09:01:05;;;;;;;21.00;4.30;;;9.00;100.00;;;;;;4936863;28;20051;-74
2024/03/23 09:03:31;;;;;;;21.90;4.85;;;8.90;100.00;;;;;;4935849;28;20504;-75
2024/03/23 09:05:58;;;;;;;30.35;4.03;;;8.90;100.00;;;;;;4920476;29;20138;-74
2024/03/23 09:08:24;;;;;;;31.02;5.07;;;8.80;100.00;;;;;;4933123;29;20063;-74
2024/03/23 09:10:51;;;;;;;24.50;4.13;;;9.00;100.00;;;;;;4937436;29;20058;-75
2024/03/23 09:13:17;;;;;;;27.05;3.97;;;8.80;100.00;;;;;;4935402;28;20125;-74
2024/03/23 09:15:51;;;;;;;32.80;3.85;;;8.90;100.00;;;;;;4937276;28;20717;-74
2024/03/23 09:18:17;;;;;;;27.65;3.85;;;9.20;100.00;;;;;;4934125;28;20544;-75
2024/03/23 09:20:43;;;;;;;30.75;4.68;;;9.30;100.00;;;;;;4936591;29;21314;-75
2024/03/23 09:23:09;;;;;;;25.08;3.72;;;9.30;100.00;;;;;;4937299;29;20070;-75
2024/03/23 09:25:39;;;;;;;17.05;3.17;;;9.40;100.00;;;;;;4937084;28;20118;-75
2024/03/23 09:28:08;;;;;;;30.60;3.42;;;9.60;100.00;;;;;;4940219;28;20074;-75
2024/03/23 09:30:35;;;;;;;28.13;4.03;;;9.70;100.00;;;;;;4941397;28;20070;-75
2024/03/23 09:33:01;;;;;;;23.58;3.38;;;9.80;100.00;;;;;;4925074;28;21357;-75
2024/03/23 09:35:27;;;;;;;34.40;4.80;;;9.90;100.00;;;;;;4925288;29;20055;-75
2024/03/23 09:37:53;;;;;;;12.15;3.40;;;10.10;100.00;;;;;;4940642;28;20059;-75
2024/03/23 09:40:19;;;;;;;26.92;3.70;;;9.90;100.00;;;;;;4941443;28;20058;-75
2024/03/23 09:42:50;;;;;;;21.80;3.58;;;9.70;100.00;;;;;;4940995;28;20070;-75
2024/03/23 09:45:28;;;;;;;29.10;3.45;;;9.80;100.00;;;;;;4925547;29;20055;-77
2024/03/23 09:47:57;;;;;;;27.17;3.13;;;9.80;100.00;;;;;;4938684;29;20063;-76
2024/03/23 09:50:23;;;;;;;16.83;3.72;;;9.90;100.00;;;;;;4941393;29;20089;-76
2024/03/23 09:52:50;;;;;;;21.85;4.10;;;9.90;100.00;;;;;;4940564;29;20106;-76
2024/03/23 09:55:16;;;;;;;24.15;2.95;;;10.10;100.00;;;;;;4940768;28;20574;-76
2024/03/23 09:57:42;;;;;;;26.60;3.33;;;9.90;100.00;;;;;;4925526;29;20059;-76
2024/03/23 10:00:09;;;;;;;14.45;2.55;;;10.00;100.00;;;;;;4924710;29;20508;-76
2024/03/23 10:02:35;;;;;;;23.15;2.92;;;10.20;100.00;;;;;;4924979;28;20059;-76
2024/03/23 10:05:01;;;;;;;20.05;2.75;;;10.20;100.00;;;;;;4924615;29;20876;-76
2024/03/23 10:07:30;;;;;;;32.88;3.67;;;10.20;100.00;;;;;;4939884;28;20743;-75
2024/03/23 10:09:56;;;;;;;23.60;2.70;;;10.50;100.00;;;;;;4939138;28;20056;-75
2024/03/23 10:12:23;;;;;;;20.25;3.20;;;10.90;100.00;;;;;;4940107;28;21340;-76
2024/03/23 10:14:49;;;;;;;19.33;3.78;;;11.20;100.00;;;;;;4923782;29;20055;-74
2024/03/23 10:17:22;;;;;;;21.05;3.40;;;11.20;100.00;;;;;;4938974;28;20126;-74
2024/03/23 10:19:50;;;;;;;17.38;2.85;;;11.40;100.00;;;;;;4939687;28;20055;-74
2024/03/23 10:22:20;;;;;;;22.70;3.20;;;11.80;100.00;;;;;;4939863;29;20513;-75
2024/03/23 10:24:47;;;;;;;13.80;2.05;;;12.50;100.00;;;;;;4939500;28;20063;-75
2024/03/23 10:27:20;;;;;;;20.25;2.58;;;13.10;100.00;;;;;;4938641;28;20704;-76
2024/03/23 10:29:47;;;;;;;17.65;2.78;;;13.50;100.00;;;;;;4938791;28;20054;-76
2024/03/23 10:32:17;;;;;;;17.80;3.17;;;13.70;100.00;;;;;;4923669;29;20095;-76
2024/03/23 10:34:44;;;;;;;30.98;6.50;;;14.40;100.00;;;;;;4940412;28;20050;-77
2024/03/23 10:37:10;;;;;;;14.75;3.22;;;14.80;100.00;;;;;;4939906;28;20051;-76
2024/03/23 10:39:38;;;;;;;11.60;2.28;;;15.20;100.00;;;;;;4924926;29;20051;-76
2024/03/23 10:42:05;;;;;;;15.25;2.15;;;14.80;100.00;;;;;;4930594;29;20070;-76
2024/03/23 10:44:32;;;;;;;16.35;2.65;;;13.90;100.00;;;;;;4923758;29;20059;-76
2024/03/23 10:47:02;;;;;;;14.43;1.92;;;13.80;100.00;;;;;;4922414;29;20062;-76
2024/03/23 10:49:35;;;;;;;11.10;2.03;;;13.40;100.00;;;;;;4940331;28;20066;-76
2024/03/23 10:52:05;;;;;;;13.32;2.10;;;13.30;100.00;;;;;;4923913;29;20063;-76
2024/03/23 10:54:32;;;;;;;24.08;1.77;;;13.40;100.00;;;;;;4924305;29;20118;-76
2024/03/23 10:57:04;;;;;;;10.95;1.73;;;13.00;100.00;;;;;;4940336;29;20047;-76
2024/03/23 10:59:32;;;;;;;14.10;2.38;;;12.70;100.00;;;;;;4940338;28;20059;-76
2024/03/23 11:01:59;;;;;;;9.68;2.30;;;12.50;100.00;;;;;;4939497;28;20062;-76
2024/03/23 11:04:42;;;;;;;13.85;2.42;;;12.40;100.00;;;;;;4940488;28;20059;-76
2024/03/23 11:07:30;;;;;;;11.18;2.50;;;12.10;100.00;;;;;;4939282;28;20059;-77
2024/03/23 11:09:56;;;;;;;24.83;2.97;;;12.00;100.00;;;;;;4938582;28;20568;-76
2024/03/23 11:12:26;;;;;;;14.27;2.35;;;12.30;100.00;;;;;;4924085;29;20110;-76
2024/03/23 11:15:12;;;;;;;11.13;1.98;;;13.40;100.00;;;;;;4939892;29;20047;-76
2024/03/23 11:17:38;;;;;;;14.75;2.50;;;14.30;100.00;;;;;;4939475;28;20055;-77
2024/03/23 11:20:05;;;;;;;13.43;3.50;;;14.60;98.40;;;;;;4939508;28;20051;-76
2024/03/23 11:22:40;;;;;;;14.02;3.22;;;15.40;95.60;;;;;;4939710;28;20051;-77
2024/03/23 11:25:26;;;;;;;16.40;1.90;;;15.90;79.80;;;;;;4939162;29;20058;-77
2024/03/23 11:27:54;;;;;;;15.05;2.30;;;16.30;54.50;;;;;;4939181;28;20055;-77
2024/03/23 11:30:24;;;;;;;15.70;3.20;;;16.70;56.60;;;;;;4938105;28;20059;-76
2024/03/23 11:32:55;;;;;;;14.93;2.90;;;17.20;57.80;;;;;;4937319;28;21455;-77
2024/03/23 11:35:41;;;;;;;15.27;2.58;;;17.10;52.40;;;;;;4939632;29;21198;-77
2024/03/23 11:38:07;;;;;;;15.43;3.35;;;17.30;53.00;;;;;;4939702;28;20117;-77
2024/03/23 11:40:34;;;;;;;18.88;3.08;;;17.50;53.30;;;;;;4938827;28;20063;-77
2024/03/23 11:43:07;;;;;;;14.52;2.53;;;16.90;52.00;;;;;;4939040;28;20047;-77
2024/03/23 11:45:42;;;;;;;11.98;2.80;;;16.00;52.70;;;;;;4938571;29;20062;-77
2024/03/23 11:48:13;;;;;;;17.90;2.60;;;15.10;55.40;;;;;;4920817;29;20063;-77
2024/03/23 11:50:44;;;;;;;14.35;2.42;;;15.70;57.40;;;;;;4921349;29;20860;-77
2024/03/23 11:53:17;;;;;;;14.77;2.30;;;16.90;54.50;;;;;;4937419;28;20047;-77
2024/03/23 11:55:50;;;;;;;8.20;1.58;;;17.20;53.40;;;;;;4920049;28;20058;-76
2024/03/23 11:58:17;;;;;;;11.63;2.38;;;17.40;47.20;;;;;;4937837;28;20055;-77
2024/03/23 12:01:10;;;;;;;11.90;1.75;;;17.50;48.10;;;;;;4938026;28;20070;-76
2024/03/23 12:03:36;;;;;;;10.43;1.60;;;18.40;49.20;;;;;;4936337;28;20114;-76
2024/03/23 12:06:03;;;;;;;10.80;1.50;;;19.30;49.80;;;;;;4936402;29;20090;-77
2024/03/23 12:08:33;;;;;;;12.23;1.80;;;18.90;44.60;;;;;;4939132;29;20129;-77
2024/03/23 12:11:14;;;;;;;10.30;1.90;;;18.00;46.30;;;;;;4939250;29;20464;-77
2024/03/23 12:13:43;;;;;;;11.32;2.47;;;18.30;46.40;;;;;;4939411;28;20047;-78
2024/03/23 12:16:24;;;;;;;9.63;1.55;;;18.20;45.90;;;;;;4939489;28;20388;-77
2024/03/23 12:18:54;;;;;;;11.50;2.30;;;18.60;46.30;;;;;;4923451;29;20055;-78
2024/03/23 12:21:22;;;;;;;11.88;2.35;;;19.30;47.00;;;;;;4924415;29;20093;-78
2024/03/23 12:23:50;;;;;;;20.17;3.40;;;19.00;46.50;;;;;;4938715;29;20051;-78
2024/03/23 12:26:17;;;;;;;11.32;2.60;;;19.00;46.00;;;;;;4924501;29;20419;-78
2024/03/23 12:28:43;;;;;;;12.57;2.10;;;19.30;47.20;;;;;;4939474;28;20063;-78
2024/03/23 12:31:10;;;;;;;16.42;2.20;;;20.20;42.70;;;;;;4939174;28;20082;-77
2024/03/23 12:33:37;;;;;;;10.38;1.95;;;19.20;48.70;;;;;;4923330;29;20051;-78
2024/03/23 12:36:03;;;;;;;8.00;1.88;;;19.70;43.20;;;;;;4936102;29;20835;-77